ESPA/LLA METAR and TAF weather

Enter ICAO airport designator
Station Type Date Time Source
ESPA METAR 2018/12/10 19:20 UTC NOAA

ESPA 101920Z 36006KT 320V030 6000 -SN BR OVC006 M01/M02 Q1010


Station Type Date Time Source
ESPA Decoded METAR 2018/12/10 19:20 UTC NOAA

Lulea / Kallax, Sweden (ESPA) 65-33N 022-08E 34M
Dec 10, 2018 - 02:20 PM EST / 2018.12.10 1920 UTC
Wind: from the N (360 degrees) at 7 MPH (6 KT) (direction variable):0
Visibility: 3 mile(s):0
Sky conditions: overcast
Weather: light snow; mist
Temperature: 30 F (-1 C)
Windchill: 23 F (-5 C):1
Dew Point: 28 F (-2 C)
Relative Humidity: 92%
Pressure (altimeter): 29.83 in. Hg (1010 hPa)
ob: ESPA 101920Z 36006KT 320V030 6000 -SN BR OVC006 M01/M02 Q1010
cycle: 19

Station Type Date Time Source
ESPA TAF 2017/09/16 02:00 UTC NOAA

TAF ESPA 160200 160400/160412 35008KT 9999 BKN007 PROB40 1604/1609 BKN012
TEMPO 1609/1612 BKN015


Example: see airport list